sensor_id;sensor_type;location;lat;lon;timestamp;P1;durP1;ratioP1;P2;durP2;ratioP2
173;SDS011;75;48.784;9.364;2022-08-19T00:01:29;21.43;;;18.20;;
173;SDS011;75;48.784;9.364;2022-08-19T00:03:59;21.87;;;18.00;;
173;SDS011;75;48.784;9.364;2022-08-19T00:06:27;21.63;;;17.90;;
173;SDS011;75;48.784;9.364;2022-08-19T00:08:54;23.30;;;18.63;;
173;SDS011;75;48.784;9.364;2022-08-19T00:11:20;20.80;;;17.00;;
173;SDS011;75;48.784;9.364;2022-08-19T00:13:46;23.73;;;19.37;;
173;SDS011;75;48.784;9.364;2022-08-19T00:16:15;20.47;;;16.80;;
173;SDS011;75;48.784;9.364;2022-08-19T00:18:44;21.20;;;17.70;;
173;SDS011;75;48.784;9.364;2022-08-19T00:21:10;22.20;;;17.33;;
173;SDS011;75;48.784;9.364;2022-08-19T00:23:35;21.10;;;17.13;;
173;SDS011;75;48.784;9.364;2022-08-19T00:26:03;21.83;;;17.73;;
173;SDS011;75;48.784;9.364;2022-08-19T00:28:29;21.30;;;17.13;;
173;SDS011;75;48.784;9.364;2022-08-19T00:30:55;20.80;;;17.27;;
173;SDS011;75;48.784;9.364;2022-08-19T00:33:21;20.37;;;16.97;;
173;SDS011;75;48.784;9.364;2022-08-19T00:35:47;22.53;;;17.97;;
173;SDS011;75;48.784;9.364;2022-08-19T00:38:12;21.90;;;17.30;;
173;SDS011;75;48.784;9.364;2022-08-19T00:40:38;23.23;;;19.43;;
173;SDS011;75;48.784;9.364;2022-08-19T00:43:07;20.63;;;16.97;;
173;SDS011;75;48.784;9.364;2022-08-19T00:45:38;23.93;;;19.30;;
173;SDS011;75;48.784;9.364;2022-08-19T00:48:07;21.93;;;17.70;;
173;SDS011;75;48.784;9.364;2022-08-19T00:50:33;23.23;;;18.30;;
173;SDS011;75;48.784;9.364;2022-08-19T00:53:00;25.87;;;19.43;;
173;SDS011;75;48.784;9.364;2022-08-19T00:55:29;22.73;;;18.33;;
173;SDS011;75;48.784;9.364;2022-08-19T00:58:02;21.77;;;17.43;;
173;SDS011;75;48.784;9.364;2022-08-19T01:00:32;22.37;;;17.50;;
173;SDS011;75;48.784;9.364;2022-08-19T01:03:01;22.70;;;18.40;;
173;SDS011;75;48.784;9.364;2022-08-19T01:05:29;23.50;;;18.40;;
173;SDS011;75;48.784;9.364;2022-08-19T01:07:56;25.60;;;19.20;;
173;SDS011;75;48.784;9.364;2022-08-19T01:10:25;24.50;;;19.33;;
173;SDS011;75;48.784;9.364;2022-08-19T01:12:53;21.80;;;18.03;;
173;SDS011;75;48.784;9.364;2022-08-19T01:15:22;21.70;;;17.40;;
173;SDS011;75;48.784;9.364;2022-08-19T01:17:51;21.30;;;17.17;;
173;SDS011;75;48.784;9.364;2022-08-19T01:20:19;26.90;;;17.53;;
173;SDS011;75;48.784;9.364;2022-08-19T01:22:48;23.23;;;18.40;;
173;SDS011;75;48.784;9.364;2022-08-19T01:25:17;20.80;;;17.20;;
173;SDS011;75;48.784;9.364;2022-08-19T01:27:48;24.07;;;18.63;;
173;SDS011;75;48.784;9.364;2022-08-19T01:30:16;24.00;;;18.83;;
173;SDS011;75;48.784;9.364;2022-08-19T01:32:48;21.87;;;17.80;;
173;SDS011;75;48.784;9.364;2022-08-19T01:35:17;22.93;;;18.00;;
173;SDS011;75;48.784;9.364;2022-08-19T01:37:53;23.03;;;17.73;;
173;SDS011;75;48.784;9.364;2022-08-19T01:40:25;22.33;;;17.77;;
173;SDS011;75;48.784;9.364;2022-08-19T01:42:54;22.77;;;17.60;;
173;SDS011;75;48.784;9.364;2022-08-19T01:45:21;25.77;;;18.10;;
173;SDS011;75;48.784;9.364;2022-08-19T01:47:49;22.37;;;16.90;;
173;SDS011;75;48.784;9.364;2022-08-19T01:50:14;21.97;;;17.93;;
173;SDS011;75;48.784;9.364;2022-08-19T01:52:41;21.30;;;17.60;;
173;SDS011;75;48.784;9.364;2022-08-19T01:55:10;23.00;;;17.90;;
173;SDS011;75;48.784;9.364;2022-08-19T01:57:38;23.47;;;18.97;;
173;SDS011;75;48.784;9.364;2022-08-19T02:00:07;21.80;;;17.60;;
173;SDS011;75;48.784;9.364;2022-08-19T02:02:36;24.40;;;18.57;;
173;SDS011;75;48.784;9.364;2022-08-19T02:05:02;24.60;;;19.40;;
173;SDS011;75;48.784;9.364;2022-08-19T02:07:28;24.07;;;18.40;;
173;SDS011;75;48.784;9.364;2022-08-19T02:09:54;26.47;;;18.97;;
173;SDS011;75;48.784;9.364;2022-08-19T02:12:20;24.20;;;19.00;;
173;SDS011;75;48.784;9.364;2022-08-19T02:14:47;25.43;;;19.07;;
173;SDS011;75;48.784;9.364;2022-08-19T02:17:13;24.00;;;18.27;;
173;SDS011;75;48.784;9.364;2022-08-19T02:19:39;25.90;;;18.80;;
173;SDS011;75;48.784;9.364;2022-08-19T02:22:05;22.83;;;18.10;;
173;SDS011;75;48.784;9.364;2022-08-19T02:24:31;24.47;;;18.70;;
173;SDS011;75;48.784;9.364;2022-08-19T02:26:56;27.13;;;19.03;;
173;SDS011;75;48.784;9.364;2022-08-19T02:29:23;26.90;;;19.83;;
173;SDS011;75;48.784;9.364;2022-08-19T02:31:49;25.40;;;18.83;;
173;SDS011;75;48.784;9.364;2022-08-19T02:34:15;26.23;;;19.50;;
173;SDS011;75;48.784;9.364;2022-08-19T02:36:41;28.10;;;19.60;;
173;SDS011;75;48.784;9.364;2022-08-19T02:39:07;27.27;;;19.70;;
173;SDS011;75;48.784;9.364;2022-08-19T02:41:33;26.63;;;20.00;;
173;SDS011;75;48.784;9.364;2022-08-19T02:44:00;27.50;;;20.90;;
173;SDS011;75;48.784;9.364;2022-08-19T02:46:28;25.47;;;18.90;;
173;SDS011;75;48.784;9.364;2022-08-19T02:48:56;30.23;;;20.50;;
173;SDS011;75;48.784;9.364;2022-08-19T02:51:25;27.60;;;20.30;;
173;SDS011;75;48.784;9.364;2022-08-19T02:53:53;32.10;;;22.80;;
173;SDS011;75;48.784;9.364;2022-08-19T02:56:19;29.00;;;20.47;;
173;SDS011;75;48.784;9.364;2022-08-19T02:58:45;28.13;;;20.50;;
173;SDS011;75;48.784;9.364;2022-08-19T03:01:18;29.90;;;20.90;;
173;SDS011;75;48.784;9.364;2022-08-19T03:03:55;32.37;;;22.30;;
173;SDS011;75;48.784;9.364;2022-08-19T03:06:22;26.03;;;19.63;;
173;SDS011;75;48.784;9.364;2022-08-19T03:08:48;29.33;;;21.93;;
173;SDS011;75;48.784;9.364;2022-08-19T03:11:18;28.40;;;20.40;;
173;SDS011;75;48.784;9.364;2022-08-19T03:13:47;30.93;;;21.90;;
173;SDS011;75;48.784;9.364;2022-08-19T03:16:16;31.30;;;21.30;;
173;SDS011;75;48.784;9.364;2022-08-19T03:18:43;32.30;;;22.20;;
173;SDS011;75;48.784;9.364;2022-08-19T03:21:09;34.10;;;23.70;;
173;SDS011;75;48.784;9.364;2022-08-19T03:23:39;29.37;;;21.80;;
173;SDS011;75;48.784;9.364;2022-08-19T03:26:05;31.50;;;23.40;;
173;SDS011;75;48.784;9.364;2022-08-19T03:28:31;30.40;;;22.50;;
173;SDS011;75;48.784;9.364;2022-08-19T03:31:02;28.03;;;18.27;;
173;SDS011;75;48.784;9.364;2022-08-19T03:33:33;32.40;;;22.80;;
173;SDS011;75;48.784;9.364;2022-08-19T03:36:02;31.90;;;23.30;;
173;SDS011;75;48.784;9.364;2022-08-19T03:38:32;33.40;;;23.03;;
173;SDS011;75;48.784;9.364;2022-08-19T03:41:01;30.63;;;21.73;;
173;SDS011;75;48.784;9.364;2022-08-19T03:43:28;30.70;;;22.63;;
173;SDS011;75;48.784;9.364;2022-08-19T03:46:00;32.80;;;23.23;;
173;SDS011;75;48.784;9.364;2022-08-19T03:48:27;31.80;;;22.43;;
173;SDS011;75;48.784;9.364;2022-08-19T03:50:55;31.13;;;22.63;;
173;SDS011;75;48.784;9.364;2022-08-19T03:53:23;36.73;;;24.57;;
173;SDS011;75;48.784;9.364;2022-08-19T03:55:49;31.30;;;21.93;;
173;SDS011;75;48.784;9.364;2022-08-19T03:58:14;32.70;;;23.13;;
173;SDS011;75;48.784;9.364;2022-08-19T04:00:42;35.40;;;23.73;;
173;SDS011;75;48.784;9.364;2022-08-19T04:03:07;32.80;;;23.07;;
173;SDS011;75;48.784;9.364;2022-08-19T04:05:33;34.20;;;23.87;;
173;SDS011;75;48.784;9.364;2022-08-19T04:07:59;35.93;;;24.30;;
173;SDS011;75;48.784;9.364;2022-08-19T04:10:25;39.70;;;26.43;;
173;SDS011;75;48.784;9.364;2022-08-19T04:12:52;38.00;;;25.67;;
173;SDS011;75;48.784;9.364;2022-08-19T04:15:18;35.90;;;25.70;;
173;SDS011;75;48.784;9.364;2022-08-19T04:17:44;36.53;;;25.13;;
173;SDS011;75;48.784;9.364;2022-08-19T04:20:10;37.10;;;25.70;;
173;SDS011;75;48.784;9.364;2022-08-19T04:22:35;37.70;;;25.87;;
173;SDS011;75;48.784;9.364;2022-08-19T04:25:01;41.53;;;26.83;;
173;SDS011;75;48.784;9.364;2022-08-19T04:27:27;36.93;;;24.90;;
173;SDS011;75;48.784;9.364;2022-08-19T04:29:54;42.07;;;26.90;;
173;SDS011;75;48.784;9.364;2022-08-19T04:32:20;35.77;;;25.10;;
173;SDS011;75;48.784;9.364;2022-08-19T04:34:46;39.27;;;26.97;;
173;SDS011;75;48.784;9.364;2022-08-19T04:37:11;40.50;;;27.17;;
173;SDS011;75;48.784;9.364;2022-08-19T04:39:38;44.13;;;26.93;;
173;SDS011;75;48.784;9.364;2022-08-19T04:42:22;37.13;;;26.40;;
173;SDS011;75;48.784;9.364;2022-08-19T04:45:07;41.83;;;28.20;;
173;SDS011;75;48.784;9.364;2022-08-19T04:47:38;36.53;;;25.63;;
173;SDS011;75;48.784;9.364;2022-08-19T04:50:06;35.63;;;25.57;;
173;SDS011;75;48.784;9.364;2022-08-19T04:52:33;37.50;;;26.63;;
173;SDS011;75;48.784;9.364;2022-08-19T04:54:58;37.60;;;26.63;;
173;SDS011;75;48.784;9.364;2022-08-19T04:57:25;39.33;;;27.03;;
173;SDS011;75;48.784;9.364;2022-08-19T04:59:57;39.97;;;28.53;;
173;SDS011;75;48.784;9.364;2022-08-19T05:02:23;39.03;;;27.70;;
173;SDS011;75;48.784;9.364;2022-08-19T05:04:50;38.03;;;26.47;;
173;SDS011;75;48.784;9.364;2022-08-19T05:07:21;37.10;;;26.97;;
173;SDS011;75;48.784;9.364;2022-08-19T05:09:47;39.80;;;27.23;;
173;SDS011;75;48.784;9.364;2022-08-19T05:12:13;41.50;;;28.47;;
173;SDS011;75;48.784;9.364;2022-08-19T05:14:38;33.50;;;24.80;;
173;SDS011;75;48.784;9.364;2022-08-19T05:17:04;34.87;;;26.00;;
173;SDS011;75;48.784;9.364;2022-08-19T05:19:30;37.13;;;26.03;;
173;SDS011;75;48.784;9.364;2022-08-19T05:22:14;37.93;;;26.63;;
173;SDS011;75;48.784;9.364;2022-08-19T05:24:59;40.03;;;27.63;;
173;SDS011;75;48.784;9.364;2022-08-19T05:27:26;36.30;;;25.40;;
173;SDS011;75;48.784;9.364;2022-08-19T05:29:51;37.07;;;28.23;;
173;SDS011;75;48.784;9.364;2022-08-19T05:32:17;34.77;;;25.77;;
173;SDS011;75;48.784;9.364;2022-08-19T05:34:42;37.33;;;26.17;;
173;SDS011;75;48.784;9.364;2022-08-19T05:37:08;34.60;;;25.00;;
173;SDS011;75;48.784;9.364;2022-08-19T05:39:34;37.13;;;25.60;;
173;SDS011;75;48.784;9.364;2022-08-19T05:42:03;36.63;;;26.20;;
173;SDS011;75;48.784;9.364;2022-08-19T05:44:32;37.13;;;27.20;;
173;SDS011;75;48.784;9.364;2022-08-19T05:47:00;42.57;;;28.93;;
173;SDS011;75;48.784;9.364;2022-08-19T05:49:27;38.50;;;28.00;;
173;SDS011;75;48.784;9.364;2022-08-19T05:51:54;37.00;;;26.80;;
173;SDS011;75;48.784;9.364;2022-08-19T05:54:20;37.77;;;27.90;;
173;SDS011;75;48.784;9.364;2022-08-19T05:56:48;37.70;;;27.20;;
173;SDS011;75;48.784;9.364;2022-08-19T05:59:16;40.07;;;26.63;;
173;SDS011;75;48.784;9.364;2022-08-19T06:01:44;43.20;;;26.20;;
173;SDS011;75;48.784;9.364;2022-08-19T06:04:11;36.87;;;26.50;;
173;SDS011;75;48.784;9.364;2022-08-19T06:06:42;35.73;;;26.60;;
173;SDS011;75;48.784;9.364;2022-08-19T06:09:07;36.57;;;27.17;;
173;SDS011;75;48.784;9.364;2022-08-19T06:11:36;37.93;;;27.70;;
173;SDS011;75;48.784;9.364;2022-08-19T06:14:04;36.40;;;26.87;;
173;SDS011;75;48.784;9.364;2022-08-19T06:16:33;38.17;;;25.80;;
173;SDS011;75;48.784;9.364;2022-08-19T06:19:07;38.90;;;27.97;;
173;SDS011;75;48.784;9.364;2022-08-19T06:21:35;37.90;;;27.40;;
173;SDS011;75;48.784;9.364;2022-08-19T06:24:03;39.93;;;27.30;;
173;SDS011;75;48.784;9.364;2022-08-19T06:26:35;36.90;;;26.87;;
173;SDS011;75;48.784;9.364;2022-08-19T06:29:03;38.83;;;28.27;;
173;SDS011;75;48.784;9.364;2022-08-19T06:31:31;35.70;;;27.43;;
173;SDS011;75;48.784;9.364;2022-08-19T06:33:59;35.40;;;26.63;;
173;SDS011;75;48.784;9.364;2022-08-19T06:36:31;40.30;;;27.90;;
173;SDS011;75;48.784;9.364;2022-08-19T06:39:10;39.30;;;28.13;;
173;SDS011;75;48.784;9.364;2022-08-19T06:41:39;43.80;;;31.10;;
173;SDS011;75;48.784;9.364;2022-08-19T06:44:07;44.77;;;30.67;;
173;SDS011;75;48.784;9.364;2022-08-19T06:46:33;43.17;;;31.20;;
173;SDS011;75;48.784;9.364;2022-08-19T06:48:59;49.07;;;34.53;;
173;SDS011;75;48.784;9.364;2022-08-19T06:51:25;41.17;;;30.20;;
173;SDS011;75;48.784;9.364;2022-08-19T06:53:53;45.13;;;32.10;;
173;SDS011;75;48.784;9.364;2022-08-19T06:56:21;45.83;;;31.50;;
173;SDS011;75;48.784;9.364;2022-08-19T06:58:50;43.70;;;31.23;;
173;SDS011;75;48.784;9.364;2022-08-19T07:01:18;51.20;;;34.50;;
173;SDS011;75;48.784;9.364;2022-08-19T07:03:45;68.50;;;41.37;;
173;SDS011;75;48.784;9.364;2022-08-19T07:06:12;65.43;;;41.20;;
173;SDS011;75;48.784;9.364;2022-08-19T07:08:42;67.63;;;41.90;;
173;SDS011;75;48.784;9.364;2022-08-19T07:11:11;81.70;;;46.67;;
173;SDS011;75;48.784;9.364;2022-08-19T07:13:38;65.53;;;41.13;;
173;SDS011;75;48.784;9.364;2022-08-19T07:16:08;71.20;;;44.03;;
173;SDS011;75;48.784;9.364;2022-08-19T07:18:36;81.33;;;46.30;;
173;SDS011;75;48.784;9.364;2022-08-19T07:21:10;83.37;;;47.37;;
173;SDS011;75;48.784;9.364;2022-08-19T07:23:38;80.03;;;46.00;;
173;SDS011;75;48.784;9.364;2022-08-19T07:26:06;72.73;;;43.53;;
173;SDS011;75;48.784;9.364;2022-08-19T07:28:33;75.10;;;44.93;;
173;SDS011;75;48.784;9.364;2022-08-19T07:30:59;77.60;;;45.10;;
173;SDS011;75;48.784;9.364;2022-08-19T07:33:27;88.57;;;46.87;;
173;SDS011;75;48.784;9.364;2022-08-19T07:35:52;84.93;;;45.10;;
173;SDS011;75;48.784;9.364;2022-08-19T07:38:19;80.37;;;46.53;;
173;SDS011;75;48.784;9.364;2022-08-19T07:40:45;75.27;;;45.10;;
173;SDS011;75;48.784;9.364;2022-08-19T07:43:11;83.13;;;46.30;;
173;SDS011;75;48.784;9.364;2022-08-19T07:45:36;85.30;;;46.00;;
173;SDS011;75;48.784;9.364;2022-08-19T07:48:02;75.43;;;44.30;;
173;SDS011;75;48.784;9.364;2022-08-19T07:50:28;71.73;;;42.97;;
173;SDS011;75;48.784;9.364;2022-08-19T07:52:54;73.17;;;44.70;;
173;SDS011;75;48.784;9.364;2022-08-19T07:55:22;64.77;;;39.10;;
173;SDS011;75;48.784;9.364;2022-08-19T07:57:49;65.37;;;40.77;;
173;SDS011;75;48.784;9.364;2022-08-19T08:00:16;76.47;;;43.33;;
173;SDS011;75;48.784;9.364;2022-08-19T08:02:41;66.33;;;40.47;;
173;SDS011;75;48.784;9.364;2022-08-19T08:05:08;61.00;;;39.13;;
173;SDS011;75;48.784;9.364;2022-08-19T08:07:53;58.57;;;38.50;;
173;SDS011;75;48.784;9.364;2022-08-19T08:10:37;61.30;;;40.00;;
173;SDS011;75;48.784;9.364;2022-08-19T08:13:03;53.03;;;36.17;;
173;SDS011;75;48.784;9.364;2022-08-19T08:15:30;58.43;;;37.60;;
173;SDS011;75;48.784;9.364;2022-08-19T08:17:56;61.40;;;40.13;;
173;SDS011;75;48.784;9.364;2022-08-19T08:20:22;64.50;;;40.87;;
173;SDS011;75;48.784;9.364;2022-08-19T08:22:48;51.70;;;34.80;;
173;SDS011;75;48.784;9.364;2022-08-19T08:25:34;46.70;;;32.63;;
173;SDS011;75;48.784;9.364;2022-08-19T08:28:01;51.07;;;35.87;;
173;SDS011;75;48.784;9.364;2022-08-19T08:30:28;48.97;;;32.93;;
173;SDS011;75;48.784;9.364;2022-08-19T08:32:55;48.07;;;32.90;;
173;SDS011;75;48.784;9.364;2022-08-19T08:35:22;46.63;;;32.73;;
173;SDS011;75;48.784;9.364;2022-08-19T08:37:49;46.77;;;31.50;;
173;SDS011;75;48.784;9.364;2022-08-19T08:40:21;43.70;;;30.33;;
173;SDS011;75;48.784;9.364;2022-08-19T08:43:04;47.47;;;32.80;;
173;SDS011;75;48.784;9.364;2022-08-19T08:45:59;47.63;;;33.07;;
173;SDS011;75;48.784;9.364;2022-08-19T08:51:29;39.13;;;28.70;;
173;SDS011;75;48.784;9.364;2022-08-19T08:54:07;36.13;;;26.50;;
173;SDS011;75;48.784;9.364;2022-08-19T08:56:43;37.93;;;26.53;;
173;SDS011;75;48.784;9.364;2022-08-19T08:59:19;36.57;;;25.17;;
173;SDS011;75;48.784;9.364;2022-08-19T09:01:57;35.23;;;24.53;;
173;SDS011;75;48.784;9.364;2022-08-19T09:04:23;35.80;;;25.93;;
173;SDS011;75;48.784;9.364;2022-08-19T09:07:00;33.77;;;26.13;;
173;SDS011;75;48.784;9.364;2022-08-19T09:09:43;34.30;;;25.50;;
173;SDS011;75;48.784;9.364;2022-08-19T09:12:31;36.40;;;26.23;;
173;SDS011;75;48.784;9.364;2022-08-19T09:15:09;35.40;;;25.80;;
173;SDS011;75;48.784;9.364;2022-08-19T09:17:36;33.23;;;25.47;;
173;SDS011;75;48.784;9.364;2022-08-19T09:22:34;33.67;;;25.40;;
173;SDS011;75;48.784;9.364;2022-08-19T09:25:00;39.03;;;28.63;;
173;SDS011;75;48.784;9.364;2022-08-19T09:27:28;34.47;;;25.23;;
173;SDS011;75;48.784;9.364;2022-08-19T09:29:54;36.33;;;26.87;;
173;SDS011;75;48.784;9.364;2022-08-19T09:32:20;37.07;;;27.43;;
173;SDS011;75;48.784;9.364;2022-08-19T09:34:47;36.63;;;27.53;;
173;SDS011;75;48.784;9.364;2022-08-19T09:37:13;38.87;;;27.10;;
173;SDS011;75;48.784;9.364;2022-08-19T09:39:39;36.07;;;26.13;;
173;SDS011;75;48.784;9.364;2022-08-19T09:42:06;34.20;;;25.10;;
173;SDS011;75;48.784;9.364;2022-08-19T09:44:37;36.33;;;26.97;;
173;SDS011;75;48.784;9.364;2022-08-19T09:47:04;36.43;;;25.63;;
173;SDS011;75;48.784;9.364;2022-08-19T09:49:30;37.17;;;27.43;;
173;SDS011;75;48.784;9.364;2022-08-19T09:51:56;39.43;;;29.37;;
173;SDS011;75;48.784;9.364;2022-08-19T09:54:22;37.20;;;26.40;;
173;SDS011;75;48.784;9.364;2022-08-19T09:56:48;39.70;;;26.97;;
173;SDS011;75;48.784;9.364;2022-08-19T09:59:14;41.07;;;27.23;;
173;SDS011;75;48.784;9.364;2022-08-19T10:01:40;38.90;;;28.07;;
173;SDS011;75;48.784;9.364;2022-08-19T10:04:06;45.17;;;30.10;;
173;SDS011;75;48.784;9.364;2022-08-19T10:06:35;37.70;;;26.30;;
173;SDS011;75;48.784;9.364;2022-08-19T10:09:03;41.70;;;29.90;;
173;SDS011;75;48.784;9.364;2022-08-19T10:11:31;36.40;;;26.90;;
173;SDS011;75;48.784;9.364;2022-08-19T10:13:58;42.30;;;28.37;;
173;SDS011;75;48.784;9.364;2022-08-19T10:16:25;37.20;;;26.47;;
173;SDS011;75;48.784;9.364;2022-08-19T10:18:51;34.50;;;25.80;;
173;SDS011;75;48.784;9.364;2022-08-19T10:21:19;43.33;;;29.57;;
173;SDS011;75;48.784;9.364;2022-08-19T10:23:48;42.83;;;30.03;;
173;SDS011;75;48.784;9.364;2022-08-19T10:26:17;41.37;;;29.40;;
173;SDS011;75;48.784;9.364;2022-08-19T10:28:45;37.97;;;26.10;;
173;SDS011;75;48.784;9.364;2022-08-19T10:31:17;38.20;;;27.13;;
173;SDS011;75;48.784;9.364;2022-08-19T10:33:45;36.53;;;26.93;;
173;SDS011;75;48.784;9.364;2022-08-19T10:36:19;35.03;;;26.07;;
173;SDS011;75;48.784;9.364;2022-08-19T10:38:49;37.10;;;27.10;;
173;SDS011;75;48.784;9.364;2022-08-19T10:41:17;36.13;;;27.43;;
173;SDS011;75;48.784;9.364;2022-08-19T10:43:47;43.77;;;28.87;;
173;SDS011;75;48.784;9.364;2022-08-19T10:46:15;35.33;;;26.07;;
173;SDS011;75;48.784;9.364;2022-08-19T10:48:41;41.80;;;28.37;;
173;SDS011;75;48.784;9.364;2022-08-19T10:51:08;37.07;;;26.77;;
173;SDS011;75;48.784;9.364;2022-08-19T10:53:53;40.77;;;27.53;;
173;SDS011;75;48.784;9.364;2022-08-19T10:56:20;35.67;;;25.93;;
173;SDS011;75;48.784;9.364;2022-08-19T10:59:04;36.47;;;25.80;;
173;SDS011;75;48.784;9.364;2022-08-19T11:01:31;44.20;;;29.87;;
173;SDS011;75;48.784;9.364;2022-08-19T11:03:59;40.07;;;29.10;;
173;SDS011;75;48.784;9.364;2022-08-19T11:06:26;36.37;;;25.70;;
173;SDS011;75;48.784;9.364;2022-08-19T11:08:52;48.33;;;28.80;;
173;SDS011;75;48.784;9.364;2022-08-19T11:11:19;35.10;;;24.57;;
173;SDS011;75;48.784;9.364;2022-08-19T11:13:48;34.43;;;25.03;;
173;SDS011;75;48.784;9.364;2022-08-19T11:16:16;37.13;;;27.27;;
173;SDS011;75;48.784;9.364;2022-08-19T11:18:45;34.50;;;26.43;;
173;SDS011;75;48.784;9.364;2022-08-19T11:21:26;38.23;;;28.50;;
173;SDS011;75;48.784;9.364;2022-08-19T11:23:58;30.67;;;23.33;;
173;SDS011;75;48.784;9.364;2022-08-19T11:26:26;31.37;;;24.00;;
173;SDS011;75;48.784;9.364;2022-08-19T11:28:54;33.23;;;25.83;;
173;SDS011;75;48.784;9.364;2022-08-19T11:31:21;35.47;;;26.33;;
173;SDS011;75;48.784;9.364;2022-08-19T11:33:49;35.20;;;24.67;;
173;SDS011;75;48.784;9.364;2022-08-19T11:36:19;35.07;;;25.63;;
173;SDS011;75;48.784;9.364;2022-08-19T11:38:47;31.83;;;24.97;;
173;SDS011;75;48.784;9.364;2022-08-19T11:41:14;33.70;;;25.60;;
173;SDS011;75;48.784;9.364;2022-08-19T11:43:41;36.33;;;26.47;;
173;SDS011;75;48.784;9.364;2022-08-19T11:46:07;36.70;;;26.67;;
173;SDS011;75;48.784;9.364;2022-08-19T11:48:35;38.83;;;25.40;;
173;SDS011;75;48.784;9.364;2022-08-19T11:51:06;31.07;;;23.47;;
173;SDS011;75;48.784;9.364;2022-08-19T11:53:34;35.17;;;25.90;;
173;SDS011;75;48.784;9.364;2022-08-19T11:56:00;32.63;;;24.70;;
173;SDS011;75;48.784;9.364;2022-08-19T11:58:27;32.90;;;24.63;;
173;SDS011;75;48.784;9.364;2022-08-19T12:00:54;36.00;;;26.60;;
173;SDS011;75;48.784;9.364;2022-08-19T12:05:49;35.60;;;25.40;;
173;SDS011;75;48.784;9.364;2022-08-19T12:08:15;32.03;;;24.07;;
173;SDS011;75;48.784;9.364;2022-08-19T12:10:41;33.67;;;25.30;;
173;SDS011;75;48.784;9.364;2022-08-19T12:13:09;37.13;;;26.63;;
173;SDS011;75;48.784;9.364;2022-08-19T12:15:38;34.10;;;25.30;;
173;SDS011;75;48.784;9.364;2022-08-19T12:18:08;31.67;;;24.23;;
173;SDS011;75;48.784;9.364;2022-08-19T12:20:35;33.33;;;24.67;;
173;SDS011;75;48.784;9.364;2022-08-19T12:23:02;33.63;;;25.60;;
173;SDS011;75;48.784;9.364;2022-08-19T12:25:29;30.10;;;22.73;;
173;SDS011;75;48.784;9.364;2022-08-19T12:27:55;29.03;;;20.43;;
173;SDS011;75;48.784;9.364;2022-08-19T12:30:21;28.33;;;21.40;;
173;SDS011;75;48.784;9.364;2022-08-19T12:32:47;32.10;;;24.10;;
173;SDS011;75;48.784;9.364;2022-08-19T12:35:13;31.23;;;23.47;;
173;SDS011;75;48.784;9.364;2022-08-19T12:37:38;31.97;;;22.47;;
173;SDS011;75;48.784;9.364;2022-08-19T12:40:09;32.40;;;24.53;;
173;SDS011;75;48.784;9.364;2022-08-19T12:42:37;32.07;;;24.53;;
173;SDS011;75;48.784;9.364;2022-08-19T12:45:06;33.13;;;24.37;;
173;SDS011;75;48.784;9.364;2022-08-19T12:47:33;32.00;;;23.83;;
173;SDS011;75;48.784;9.364;2022-08-19T12:49:58;34.60;;;25.40;;
173;SDS011;75;48.784;9.364;2022-08-19T12:52:25;32.10;;;24.83;;
173;SDS011;75;48.784;9.364;2022-08-19T12:54:53;36.10;;;26.80;;
173;SDS011;75;48.784;9.364;2022-08-19T12:57:21;35.63;;;26.83;;
173;SDS011;75;48.784;9.364;2022-08-19T12:59:48;39.23;;;26.30;;
173;SDS011;75;48.784;9.364;2022-08-19T13:02:18;32.53;;;25.63;;
173;SDS011;75;48.784;9.364;2022-08-19T13:04:44;37.87;;;27.73;;
173;SDS011;75;48.784;9.364;2022-08-19T13:07:10;37.60;;;27.27;;
173;SDS011;75;48.784;9.364;2022-08-19T13:09:36;36.20;;;26.90;;
173;SDS011;75;48.784;9.364;2022-08-19T13:12:03;38.07;;;28.03;;
173;SDS011;75;48.784;9.364;2022-08-19T13:14:33;42.40;;;30.23;;
173;SDS011;75;48.784;9.364;2022-08-19T13:17:01;40.60;;;30.07;;
173;SDS011;75;48.784;9.364;2022-08-19T13:19:27;45.47;;;31.80;;
173;SDS011;75;48.784;9.364;2022-08-19T13:21:53;45.07;;;31.97;;
173;SDS011;75;48.784;9.364;2022-08-19T13:24:20;44.40;;;32.77;;
173;SDS011;75;48.784;9.364;2022-08-19T13:26:46;43.87;;;31.63;;
173;SDS011;75;48.784;9.364;2022-08-19T13:29:13;46.30;;;32.03;;
173;SDS011;75;48.784;9.364;2022-08-19T13:31:57;50.27;;;35.10;;
173;SDS011;75;48.784;9.364;2022-08-19T13:34:41;54.40;;;36.67;;
173;SDS011;75;48.784;9.364;2022-08-19T13:37:07;46.50;;;33.30;;
173;SDS011;75;48.784;9.364;2022-08-19T13:39:33;43.30;;;32.03;;
173;SDS011;75;48.784;9.364;2022-08-19T13:42:00;52.37;;;33.57;;
173;SDS011;75;48.784;9.364;2022-08-19T13:44:27;49.77;;;33.57;;
173;SDS011;75;48.784;9.364;2022-08-19T13:46:54;51.53;;;35.63;;
173;SDS011;75;48.784;9.364;2022-08-19T13:49:27;46.73;;;31.50;;
173;SDS011;75;48.784;9.364;2022-08-19T13:51:55;41.73;;;30.40;;
173;SDS011;75;48.784;9.364;2022-08-19T13:54:21;42.37;;;31.00;;
173;SDS011;75;48.784;9.364;2022-08-19T13:56:46;46.00;;;32.37;;
173;SDS011;75;48.784;9.364;2022-08-19T13:59:12;46.67;;;32.10;;
173;SDS011;75;48.784;9.364;2022-08-19T14:01:39;37.33;;;27.77;;
173;SDS011;75;48.784;9.364;2022-08-19T14:04:05;39.47;;;28.13;;
173;SDS011;75;48.784;9.364;2022-08-19T14:06:31;40.57;;;28.77;;
173;SDS011;75;48.784;9.364;2022-08-19T14:08:57;37.23;;;27.37;;
173;SDS011;75;48.784;9.364;2022-08-19T14:11:23;41.87;;;30.23;;
173;SDS011;75;48.784;9.364;2022-08-19T14:13:49;41.70;;;30.30;;
173;SDS011;75;48.784;9.364;2022-08-19T14:16:15;31.40;;;23.70;;
173;SDS011;75;48.784;9.364;2022-08-19T14:18:41;37.83;;;27.10;;
173;SDS011;75;48.784;9.364;2022-08-19T14:21:11;35.73;;;26.50;;
173;SDS011;75;48.784;9.364;2022-08-19T14:23:40;36.73;;;25.70;;
173;SDS011;75;48.784;9.364;2022-08-19T14:26:07;35.90;;;27.50;;
173;SDS011;75;48.784;9.364;2022-08-19T14:28:36;40.97;;;29.40;;
173;SDS011;75;48.784;9.364;2022-08-19T14:31:02;41.67;;;29.67;;
173;SDS011;75;48.784;9.364;2022-08-19T14:33:27;41.10;;;30.00;;
173;SDS011;75;48.784;9.364;2022-08-19T14:35:53;39.80;;;29.03;;
173;SDS011;75;48.784;9.364;2022-08-19T14:38:18;39.53;;;29.60;;
173;SDS011;75;48.784;9.364;2022-08-19T14:40:45;38.03;;;28.77;;
173;SDS011;75;48.784;9.364;2022-08-19T14:43:10;39.97;;;30.50;;
173;SDS011;75;48.784;9.364;2022-08-19T14:45:37;42.60;;;30.40;;
173;SDS011;75;48.784;9.364;2022-08-19T14:48:05;43.93;;;30.20;;
173;SDS011;75;48.784;9.364;2022-08-19T14:50:32;45.20;;;31.37;;
173;SDS011;75;48.784;9.364;2022-08-19T14:52:59;40.90;;;27.97;;
173;SDS011;75;48.784;9.364;2022-08-19T14:55:28;43.20;;;29.60;;
173;SDS011;75;48.784;9.364;2022-08-19T14:57:54;39.07;;;29.43;;
173;SDS011;75;48.784;9.364;2022-08-19T15:00:19;41.50;;;30.77;;
173;SDS011;75;48.784;9.364;2022-08-19T15:02:46;41.50;;;30.93;;
173;SDS011;75;48.784;9.364;2022-08-19T15:05:12;43.77;;;32.30;;
173;SDS011;75;48.784;9.364;2022-08-19T15:07:38;46.97;;;32.43;;
173;SDS011;75;48.784;9.364;2022-08-19T15:10:05;40.40;;;29.80;;
173;SDS011;75;48.784;9.364;2022-08-19T15:12:32;43.90;;;32.50;;
173;SDS011;75;48.784;9.364;2022-08-19T15:14:59;43.50;;;30.63;;
173;SDS011;75;48.784;9.364;2022-08-19T15:17:25;45.10;;;32.70;;
173;SDS011;75;48.784;9.364;2022-08-19T15:19:51;43.67;;;32.40;;
173;SDS011;75;48.784;9.364;2022-08-19T15:22:17;45.20;;;33.30;;
173;SDS011;75;48.784;9.364;2022-08-19T15:24:42;41.43;;;31.63;;
173;SDS011;75;48.784;9.364;2022-08-19T15:27:11;39.80;;;29.83;;
173;SDS011;75;48.784;9.364;2022-08-19T15:29:38;38.80;;;28.87;;
173;SDS011;75;48.784;9.364;2022-08-19T15:32:06;32.73;;;25.67;;
173;SDS011;75;48.784;9.364;2022-08-19T15:34:32;40.00;;;30.23;;
173;SDS011;75;48.784;9.364;2022-08-19T15:36:58;41.43;;;29.90;;
173;SDS011;75;48.784;9.364;2022-08-19T15:39:24;40.87;;;30.93;;
173;SDS011;75;48.784;9.364;2022-08-19T15:41:50;39.87;;;30.97;;
173;SDS011;75;48.784;9.364;2022-08-19T15:44:16;38.00;;;29.07;;